Time;durP1;ratioP1;P1;durP2;ratioP2;P2;SDS_P1;SDS_P2;PMS_P1;PMS_P2;Temp;Humidity;BMP_temperature;BMP_pressure;BME280_temperature;BME280_humidity;BME280_pressure;Samples;Min_cycle;Max_cycle;Signal;HPM_P1;HPM_P2
2021/03/13 00:00:48;;;;;;;13.90;2.53;;;;;;;8.06;100.00;99800.72;5070429;28;20127;-69
2021/03/13 00:03:15;;;;;;;12.65;2.75;;;;;;;7.97;100.00;99805.75;5070530;28;20028;-69
2021/03/13 00:05:41;;;;;;;14.65;2.85;;;;;;;7.93;100.00;99793.75;5070385;28;20040;-66
2021/03/13 00:08:08;;;;;;;13.10;3.22;;;;;;;7.89;100.00;99792.63;5070228;28;20130;-67
2021/03/13 00:10:36;;;;;;;13.57;2.28;;;;;;;7.87;100.00;99783.88;5070701;28;20463;-65
2021/03/13 00:13:03;;;;;;;20.52;3.35;;;;;;;7.85;100.00;99737.09;5074278;28;20535;-66
2021/03/13 00:15:29;;;;;;;24.50;3.92;;;;;;;7.87;100.00;99773.00;5074254;28;20036;-65
2021/03/13 00:17:56;;;;;;;18.00;3.08;;;;;;;7.87;100.00;99740.38;5074256;28;20524;-63
2021/03/13 00:20:25;;;;;;;18.42;3.05;;;;;;;7.87;100.00;99751.25;5074176;28;20066;-65
2021/03/13 00:22:51;;;;;;;21.08;3.78;;;;;;;7.88;100.00;99746.66;5074077;28;20039;-66
2021/03/13 00:25:17;;;;;;;17.52;2.72;;;;;;;7.90;100.00;99726.28;5074073;28;20066;-67
2021/03/13 00:27:46;;;;;;;16.60;2.53;;;;;;;7.99;100.00;99719.34;5073988;28;20041;-66
2021/03/13 00:30:19;;;;;;;25.88;4.20;;;;;;;8.08;100.00;99741.47;5074029;28;20398;-66
2021/03/13 00:32:47;;;;;;;26.63;4.85;;;;;;;8.13;100.00;99728.75;5073841;28;20135;-65
2021/03/13 00:35:13;;;;;;;25.10;4.63;;;;;;;8.17;100.00;99745.41;5073903;28;20040;-65
2021/03/13 00:37:39;;;;;;;28.92;4.28;;;;;;;8.20;100.00;99731.31;5073963;28;20105;-68
2021/03/13 00:40:07;;;;;;;26.58;4.90;;;;;;;8.27;100.00;99728.38;5073763;28;20137;-68
2021/03/13 00:42:33;;;;;;;14.02;3.38;;;;;;;8.31;100.00;99733.03;5073640;28;20036;-66
2021/03/13 00:44:59;;;;;;;30.33;5.15;;;;;;;8.39;100.00;99739.97;5073633;28;20090;-69
2021/03/13 00:47:25;;;;;;;41.45;4.93;;;;;;;8.37;100.00;99744.84;5073686;28;20037;-68
2021/03/13 00:49:51;;;;;;;39.75;7.03;;;;;;;8.39;100.00;99761.75;5073697;28;20044;-64
2021/03/13 00:52:16;;;;;;;35.97;6.10;;;;;;;8.41;100.00;99732.38;5073580;28;20553;-66
2021/03/13 00:54:42;;;;;;;40.42;6.78;;;;;;;8.42;100.00;99723.13;5073520;28;20028;-66
2021/03/13 00:57:07;;;;;;;35.42;5.90;;;;;;;8.45;100.00;99731.59;5055303;28;20040;-64
2021/03/13 00:59:33;;;;;;;43.30;7.47;;;;;;;8.45;100.00;99731.59;5073429;28;20036;-65
2021/03/13 01:01:59;;;;;;;45.55;7.05;;;;;;;8.43;100.00;99714.72;5073300;28;20040;-67
2021/03/13 01:04:25;;;;;;;38.03;6.82;;;;;;;8.44;100.00;99745.47;5073433;28;20060;-66
2021/03/13 01:06:50;;;;;;;37.65;7.03;;;;;;;8.44;100.00;99740.84;5073179;28;20059;-66
2021/03/13 01:09:16;;;;;;;44.38;7.15;;;;;;;8.44;100.00;99740.03;5073451;28;20052;-66
2021/03/13 01:11:43;;;;;;;30.17;5.40;;;;;;;8.45;100.00;99709.03;5073323;28;20029;-66
2021/03/13 01:14:09;;;;;;;40.30;7.63;;;;;;;8.48;100.00;99685.91;5073085;28;20056;-68
2021/03/13 01:16:35;;;;;;;48.72;8.80;;;;;;;8.50;100.00;99714.50;5055113;28;20043;-66
2021/03/13 01:19:00;;;;;;;40.33;7.30;;;;;;;8.52;100.00;99706.94;5073314;28;20040;-69
2021/03/13 01:21:26;;;;;;;46.45;7.65;;;;;;;8.50;100.00;99668.25;5072971;28;20471;-67
2021/03/13 01:23:51;;;;;;;38.10;6.63;;;;;;;8.56;100.00;99713.50;5072045;28;20043;-67
2021/03/13 01:26:17;;;;;;;30.23;5.50;;;;;;;8.62;100.00;99715.19;5072966;28;20189;-68
2021/03/13 01:28:43;;;;;;;30.73;4.78;;;;;;;8.62;100.00;99720.63;5072875;28;20036;-64
2021/03/13 01:31:08;;;;;;;40.05;7.05;;;;;;;8.64;100.00;99712.19;5073326;28;20033;-67
2021/03/13 01:33:34;;;;;;;38.90;6.28;;;;;;;8.59;100.00;99721.16;5072732;28;20040;-66
2021/03/13 01:36:00;;;;;;;34.65;5.57;;;;;;;8.58;100.00;99724.94;5072759;28;20060;-65
2021/03/13 01:38:25;;;;;;;51.03;7.75;;;;;;;8.58;100.00;99714.06;5072810;28;20041;-66
2021/03/13 01:40:52;;;;;;;35.60;5.53;;;;;;;8.61;100.00;99716.28;5072565;28;20044;-67
2021/03/13 01:43:17;;;;;;;31.30;6.22;;;;;;;8.62;100.00;99717.09;5072652;28;20036;-68
2021/03/13 01:45:43;;;;;;;23.52;5.32;;;;;;;8.66;100.00;99732.63;5072475;28;20036;-64
2021/03/13 01:48:09;;;;;;;27.88;5.72;;;;;;;8.64;100.00;99713.03;5072551;28;20040;-66
2021/03/13 01:50:36;;;;;;;29.27;5.00;;;;;;;8.67;100.00;99712.50;5072540;28;20081;-64
2021/03/13 01:53:01;;;;;;;38.17;6.47;;;;;;;8.65;100.00;99731.00;5072378;28;20050;-70
2021/03/13 01:55:27;;;;;;;39.03;5.65;;;;;;;8.63;100.00;99719.56;5072460;28;20040;-67
2021/03/13 01:57:53;;;;;;;49.20;7.38;;;;;;;8.63;100.00;99738.59;5072385;28;20054;-67
2021/03/13 02:00:21;;;;;;;46.58;6.88;;;;;;;8.64;100.00;99742.97;5072206;28;20055;-70
2021/03/13 02:02:48;;;;;;;28.02;5.57;;;;;;;8.53;100.00;99719.47;5072166;28;20048;-65
2021/03/13 02:05:18;;;;;;;37.60;6.55;;;;;;;8.47;100.00;99753.13;5072131;28;20098;-66
2021/03/13 02:08:04;;;;;;;38.22;5.88;;;;;;;8.42;100.00;99747.63;5072104;28;20118;-66
2021/03/13 02:11:03;;;;;;;29.08;5.15;;;;;;;8.32;100.00;99726.53;5072235;28;20108;-66
2021/03/13 02:14:03;;;;;;;28.70;5.40;;;;;;;8.22;100.00;99744.63;5071959;28;20037;-66
2021/03/13 02:16:36;;;;;;;22.67;3.80;;;;;;;8.15;100.00;99758.41;5072056;28;20036;-65
2021/03/13 02:19:28;;;;;;;22.88;3.83;;;;;;;8.08;100.00;99764.03;5071904;28;20135;-66
2021/03/13 02:22:08;;;;;;;26.00;4.70;;;;;;;8.02;100.00;99765.06;5030388;28;20620;-65
2021/03/13 02:24:42;;;;;;;23.90;4.28;;;;;;;7.99;100.00;99794.66;5071781;28;20036;-67
2021/03/13 02:27:22;;;;;;;42.72;5.70;;;;;;;7.95;100.00;99747.28;5071759;28;20032;-63
2021/03/13 02:29:53;;;;;;;24.85;4.93;;;;;;;7.91;100.00;99757.03;5071779;28;20055;-68
2021/03/13 02:32:28;;;;;;;31.20;5.07;;;;;;;7.92;100.00;99764.91;5071550;28;20546;-68
2021/03/13 02:35:11;;;;;;;27.17;4.78;;;;;;;7.93;100.00;99757.59;5071630;28;20434;-67
2021/03/13 02:37:40;;;;;;;28.00;4.30;;;;;;;7.94;100.00;99746.47;5071582;28;20036;-65
2021/03/13 02:40:08;;;;;;;29.63;5.18;;;;;;;7.95;100.00;99764.41;5071638;28;20034;-64
2021/03/13 02:42:45;;;;;;;33.13;5.43;;;;;;;7.97;100.00;99766.88;5071623;28;20540;-66
2021/03/13 02:45:11;;;;;;;24.88;4.05;;;;;;;7.93;100.00;99791.03;5071452;28;20059;-66
2021/03/13 02:47:41;;;;;;;23.15;3.58;;;;;;;7.79;100.00;99800.59;5071321;28;20510;-68
2021/03/13 02:50:08;;;;;;;23.02;3.90;;;;;;;7.42;100.00;99746.81;5053290;28;20040;-68
2021/03/13 02:52:36;;;;;;;17.83;3.67;;;;;;;7.28;100.00;99775.34;5071417;28;20386;-66
2021/03/13 02:55:04;;;;;;;22.35;3.50;;;;;;;7.25;100.00;99762.28;5071375;28;20398;-65
2021/03/13 02:57:32;;;;;;;22.17;3.55;;;;;;;7.33;100.00;99778.19;5071341;28;20066;-68
2021/03/13 02:59:58;;;;;;;28.92;4.82;;;;;;;7.35;100.00;99781.47;5071157;28;20047;-65
2021/03/13 03:02:26;;;;;;;27.63;5.60;;;;;;;7.33;100.00;99761.88;5071118;28;20559;-66
2021/03/13 03:04:52;;;;;;;20.83;3.28;;;;;;;7.30;100.00;99789.53;5071124;28;20459;-65
2021/03/13 03:07:25;;;;;;;20.98;3.03;;;;;;;7.26;100.00;99766.63;5071045;28;20048;-65
2021/03/13 03:09:51;;;;;;;20.70;3.75;;;;;;;7.20;100.00;99781.22;5053145;28;20032;-67
2021/03/13 03:12:18;;;;;;;19.45;3.60;;;;;;;7.19;100.00;99779.56;5070947;28;20045;-66
2021/03/13 03:14:45;;;;;;;17.80;2.70;;;;;;;7.14;100.00;99776.78;5071023;28;20032;-65
2021/03/13 03:17:12;;;;;;;24.95;3.60;;;;;;;7.15;100.00;99797.44;5071054;28;20172;-67
2021/03/13 03:19:40;;;;;;;13.35;2.60;;;;;;;7.15;100.00;99781.13;5070837;28;20040;-66
2021/03/13 03:22:06;;;;;;;18.00;4.00;;;;;;;7.19;100.00;99780.38;5070753;28;20068;-64
2021/03/13 03:24:33;;;;;;;31.58;4.30;;;;;;;7.16;100.00;99782.78;5070798;28;20075;-64
2021/03/13 03:27:00;;;;;;;30.25;5.50;;;;;;;7.17;100.00;99784.44;5070779;28;20048;-65
2021/03/13 03:29:27;;;;;;;28.92;3.72;;;;;;;7.18;100.00;99772.50;5070817;28;20040;-68
2021/03/13 03:31:53;;;;;;;29.70;5.20;;;;;;;7.20;100.00;99765.75;5070825;28;20071;-66
2021/03/13 03:34:19;;;;;;;38.13;5.60;;;;;;;7.27;100.00;99787.28;5070614;28;20041;-65
2021/03/13 03:36:44;;;;;;;35.58;5.20;;;;;;;7.34;100.00;99834.16;5070631;28;20044;-65
2021/03/13 03:39:13;;;;;;;52.50;5.50;;;;;;;7.35;100.00;99786.09;5070813;28;20511;-66
2021/03/13 03:41:44;;;;;;;29.95;4.60;;;;;;;7.25;100.00;99813.88;5070581;28;20041;-69
2021/03/13 03:44:18;;;;;;;15.13;2.40;;;;;;;7.12;100.00;99806.06;5052927;28;20139;-67
2021/03/13 03:46:44;;;;;;;11.93;2.30;;;;;;;7.07;100.00;99805.97;5074399;28;20115;-67
2021/03/13 03:49:13;;;;;;;11.23;1.60;;;;;;;6.97;100.00;99800.38;5077603;28;20473;-66
2021/03/13 03:51:40;;;;;;;12.48;2.28;;;;;;;6.91;100.00;99805.69;5077213;28;20522;-64
2021/03/13 03:54:10;;;;;;;7.55;1.98;;;;;;;6.87;100.00;99807.25;5077103;28;20040;-69
2021/03/13 03:56:39;;;;;;;10.60;2.50;;;;;;;6.85;100.00;99798.53;5077168;28;20040;-65
2021/03/13 03:59:07;;;;;;;8.98;1.38;;;;;;;6.85;100.00;99803.13;5059110;28;20433;-64
2021/03/13 04:01:34;;;;;;;15.77;1.48;;;;;;;6.84;100.00;99796.88;5076969;28;20159;-66
2021/03/13 04:04:02;;;;;;;10.70;1.75;;;;;;;6.84;100.00;99804.19;5077051;28;20044;-65
2021/03/13 04:06:28;;;;;;;18.25;2.58;;;;;;;6.86;100.00;99800.16;5076928;28;20048;-67
2021/03/13 04:08:58;;;;;;;13.88;2.03;;;;;;;6.89;100.00;99821.38;5077146;28;20375;-67
2021/03/13 04:11:25;;;;;;;17.25;3.90;;;;;;;6.99;100.00;99817.22;5077159;28;20110;-64
2021/03/13 04:13:53;;;;;;;25.38;3.28;;;;;;;7.08;100.00;99788.59;5076920;28;20047;-66
2021/03/13 04:16:20;;;;;;;16.52;2.65;;;;;;;7.17;100.00;99806.16;5077034;28;20042;-65
2021/03/13 04:18:46;;;;;;;24.67;4.13;;;;;;;7.21;100.00;99812.72;5076902;28;20062;-68
2021/03/13 04:21:13;;;;;;;26.90;3.63;;;;;;;7.26;100.00;99804.66;5058992;28;20482;-66
2021/03/13 04:23:44;;;;;;;23.77;5.90;;;;;;;7.31;100.00;99807.47;5076874;28;20509;-66
2021/03/13 04:26:10;;;;;;;20.35;4.18;;;;;;;7.37;100.00;99801.06;5076877;28;20389;-67
2021/03/13 04:28:36;;;;;;;23.20;3.92;;;;;;;7.42;100.00;99797.59;5076999;28;20032;-66
2021/03/13 04:31:04;;;;;;;26.67;3.97;;;;;;;7.47;100.00;99819.44;5076912;28;20494;-64
2021/03/13 04:33:31;;;;;;;20.67;4.22;;;;;;;7.48;100.00;99773.00;5076750;28;20037;-65
2021/03/13 04:35:58;;;;;;;24.27;3.22;;;;;;;7.47;100.00;99814.81;5076866;28;20098;-64
2021/03/13 04:38:24;;;;;;;16.00;2.38;;;;;;;7.47;100.00;99811.28;5058914;28;20032;-68
2021/03/13 04:40:51;;;;;;;17.50;2.85;;;;;;;7.46;100.00;99821.31;5076648;28;20470;-67
2021/03/13 04:43:22;;;;;;;10.70;2.45;;;;;;;7.44;100.00;99807.13;5076703;28;20048;-69
2021/03/13 04:45:48;;;;;;;11.80;2.08;;;;;;;7.43;100.00;99820.97;5076728;28;20041;-63
2021/03/13 04:48:15;;;;;;;16.33;2.53;;;;;;;7.43;100.00;99831.84;5076792;28;20528;-66
2021/03/13 04:50:41;;;;;;;11.95;1.88;;;;;;;7.41;100.00;99837.50;5077037;28;20028;-65
2021/03/13 04:53:07;;;;;;;13.40;2.28;;;;;;;7.43;100.00;99823.69;5076699;28;20142;-66
2021/03/13 04:55:34;;;;;;;19.70;3.85;;;;;;;7.45;100.00;99830.50;5076522;28;20082;-66
2021/03/13 04:57:59;;;;;;;14.25;2.10;;;;;;;7.48;100.00;99851.78;5073885;28;20478;-68
2021/03/13 05:00:25;;;;;;;18.25;3.50;;;;;;;7.49;100.00;99858.84;5073403;28;20044;-67
2021/03/13 05:02:51;;;;;;;8.95;1.90;;;;;;;7.48;100.00;99840.91;5073454;28;20047;-68
2021/03/13 05:05:17;;;;;;;14.45;2.63;;;;;;;7.52;100.00;99863.78;5073352;28;20045;-66
2021/03/13 05:07:43;;;;;;;23.27;3.45;;;;;;;7.54;100.00;99856.22;5073134;28;20065;-67
2021/03/13 05:10:09;;;;;;;23.52;3.33;;;;;;;7.56;100.00;99870.38;5073448;28;20127;-65
2021/03/13 05:12:35;;;;;;;18.60;3.35;;;;;;;7.57;100.00;99872.03;5073132;28;20047;-67
2021/03/13 05:15:01;;;;;;;23.08;3.35;;;;;;;7.55;100.00;99874.16;5073224;28;20037;-67
2021/03/13 05:17:27;;;;;;;21.33;3.33;;;;;;;7.55;100.00;99868.72;5055253;28;20041;-67
2021/03/13 05:19:53;;;;;;;19.55;2.97;;;;;;;7.54;100.00;99869.81;5073291;28;20047;-65
2021/03/13 05:22:18;;;;;;;12.15;2.38;;;;;;;7.57;100.00;99873.91;5054688;28;20067;-66
2021/03/13 05:24:44;;;;;;;16.55;2.97;;;;;;;7.57;100.00;99885.59;5072981;28;20040;-64
2021/03/13 05:27:10;;;;;;;15.95;2.85;;;;;;;7.56;100.00;99900.25;5073105;28;20037;-65
2021/03/13 05:29:35;;;;;;;23.80;3.53;;;;;;;7.58;100.00;99886.44;5072946;28;20036;-68
2021/03/13 05:32:01;;;;;;;19.48;3.75;;;;;;;7.59;100.00;99884.53;5072813;28;20036;-67
2021/03/13 05:34:27;;;;;;;21.58;2.67;;;;;;;7.68;100.00;99883.06;5072858;28;20044;-67
2021/03/13 05:36:53;;;;;;;18.55;3.50;;;;;;;7.74;100.00;99892.94;5072844;28;20045;-64
2021/03/13 05:39:19;;;;;;;14.32;3.28;;;;;;;7.77;100.00;99914.19;5072691;28;20044;-66
2021/03/13 05:41:46;;;;;;;14.38;2.58;;;;;;;7.78;100.00;99915.84;5072708;28;20033;-66
2021/03/13 05:44:13;;;;;;;25.55;3.85;;;;;;;7.79;100.00;99917.47;5072667;28;20044;-66
2021/03/13 05:46:43;;;;;;;30.30;5.88;;;;;;;7.80;100.00;99943.59;5072526;28;20050;-65
2021/03/13 05:49:09;;;;;;;21.05;3.55;;;;;;;7.67;100.00;99946.66;5072693;28;20029;-67
2021/03/13 05:51:37;;;;;;;18.25;2.75;;;;;;;7.63;100.00;99967.22;5072554;28;20035;-67
2021/03/13 05:54:05;;;;;;;22.80;2.60;;;;;;;7.46;100.00;99967.16;5072261;28;20105;-66
2021/03/13 05:56:31;;;;;;;9.40;2.05;;;;;;;7.35;100.00;99970.78;5054322;28;20044;-71
2021/03/13 05:59:01;;;;;;;18.80;2.83;;;;;;;7.20;100.00;99957.72;5072531;28;20041;-64
2021/03/13 06:01:31;;;;;;;11.02;1.58;;;;;;;7.03;100.00;99967.69;5036580;28;20502;-65
2021/03/13 06:03:57;;;;;;;5.28;1.77;;;;;;;6.97;100.00;99979.53;5072083;28;20085;-66
2021/03/13 06:06:24;;;;;;;17.73;2.30;;;;;;;6.92;100.00;99981.03;5072534;28;20093;-66
2021/03/13 06:08:50;;;;;;;8.82;1.05;;;;;;;6.91;100.00;99979.41;5053984;28;20037;-68
2021/03/13 06:11:17;;;;;;;21.27;2.10;;;;;;;6.90;100.00;99975.03;5072080;28;20058;-66
2021/03/13 06:13:43;;;;;;;8.80;1.80;;;;;;;6.88;100.00;99971.75;5072003;28;20040;-68
2021/03/13 06:16:09;;;;;;;21.25;3.40;;;;;;;6.87;100.00;99980.94;5072095;28;20445;-66
2021/03/13 06:18:49;;;;;;;25.20;3.08;;;;;;;6.88;100.00;99988.03;5071950;28;20046;-65
2021/03/13 06:21:36;;;;;;;18.60;2.88;;;;;;;6.91;100.00;99971.25;5071811;28;20037;-68
2021/03/13 06:24:12;;;;;;;17.13;2.85;;;;;;;6.95;100.00;99983.31;5071894;28;20043;-65
2021/03/13 06:26:59;;;;;;;18.38;3.92;;;;;;;7.00;100.00;99989.91;5071805;28;20044;-65
2021/03/13 06:29:25;;;;;;;22.33;3.65;;;;;;;7.04;100.00;99993.78;5071777;28;20055;-70
2021/03/13 06:32:08;;;;;;;23.98;4.72;;;;;;;7.08;100.00;100003.09;5071769;28;20025;-67
2021/03/13 06:34:34;;;;;;;23.83;3.10;;;;;;;7.10;100.00;100011.81;5071694;28;20051;-65
2021/03/13 06:37:28;;;;;;;21.13;3.53;;;;;;;7.09;100.00;100016.41;5071590;28;20043;-64
2021/03/13 06:39:56;;;;;;;16.88;2.65;;;;;;;7.14;100.00;100019.25;5071703;28;20032;-68
2021/03/13 06:42:29;;;;;;;12.02;2.15;;;;;;;7.16;100.00;100028.00;5071289;28;20029;-67
2021/03/13 06:45:04;;;;;;;14.48;2.05;;;;;;;7.18;100.00;100027.75;5071859;28;20406;-65
2021/03/13 06:47:34;;;;;;;15.85;2.47;;;;;;;7.18;100.00;100030.47;5071579;28;20033;-68
2021/03/13 06:50:16;;;;;;;14.35;2.10;;;;;;;7.17;100.00;100036.97;5071412;28;20039;-67
2021/03/13 06:52:44;;;;;;;12.50;2.35;;;;;;;7.21;100.00;100047.09;5071201;28;20422;-65
2021/03/13 06:55:19;;;;;;;19.73;2.88;;;;;;;7.26;100.00;100043.66;5071456;28;20033;-67
2021/03/13 06:57:47;;;;;;;24.90;4.82;;;;;;;7.31;100.00;100046.50;5071330;28;20064;-67
2021/03/13 07:00:34;;;;;;;19.25;3.15;;;;;;;7.32;100.00;100045.44;5071074;28;20036;-66
2021/03/13 07:03:10;;;;;;;26.65;3.80;;;;;;;7.36;100.00;100053.91;5071018;28;20048;-65
2021/03/13 07:05:38;;;;;;;25.73;4.03;;;;;;;7.40;100.00;100050.47;5053332;28;20085;-64
2021/03/13 07:08:32;;;;;;;18.83;3.25;;;;;;;7.40;100.00;100061.34;5070880;28;20075;-66
2021/03/13 07:11:07;;;;;;;21.88;2.83;;;;;;;7.42;100.00;100070.06;5070984;28;20041;-69
2021/03/13 07:13:34;;;;;;;15.70;2.75;;;;;;;7.42;100.00;100063.81;5053439;28;20174;-68
2021/03/13 07:16:22;;;;;;;21.73;3.47;;;;;;;7.43;100.00;100060.84;5070926;28;20037;-64
2021/03/13 07:18:48;;;;;;;27.48;2.83;;;;;;;7.45;100.00;100077.72;5071158;28;20059;-67
2021/03/13 07:21:16;;;;;;;12.95;2.58;;;;;;;7.46;100.00;100076.69;5070259;28;20037;-67
2021/03/13 07:23:43;;;;;;;20.85;2.22;;;;;;;7.51;100.00;100084.13;5070869;28;20078;-68
2021/03/13 07:26:14;;;;;;;18.95;2.55;;;;;;;7.52;100.00;100086.59;5070750;28;20121;-67
2021/03/13 07:28:44;;;;;;;21.20;2.63;;;;;;;7.55;100.00;100090.72;5070988;28;20044;-65
2021/03/13 07:31:11;;;;;;;19.67;2.80;;;;;;;7.54;100.00;100098.03;5070816;28;20501;-69
2021/03/13 07:33:41;;;;;;;12.50;2.42;;;;;;;7.55;100.00;100096.16;5070614;28;20456;-65
2021/03/13 07:36:10;;;;;;;12.82;2.00;;;;;;;7.59;100.00;100112.78;5070915;28;20042;-65
2021/03/13 07:38:40;;;;;;;11.70;1.95;;;;;;;7.57;100.00;100099.44;5070844;28;20032;-67
2021/03/13 07:41:09;;;;;;;24.08;4.20;;;;;;;7.56;100.00;100109.50;5070700;28;20044;-64
2021/03/13 07:43:38;;;;;;;13.10;2.75;;;;;;;7.60;100.00;100119.88;5070547;28;20043;-67
2021/03/13 07:46:08;;;;;;;14.95;1.92;;;;;;;7.63;100.00;100119.38;5070723;28;20040;-67
2021/03/13 07:48:37;;;;;;;19.55;2.08;;;;;;;7.67;100.00;100136.91;5070688;28;20449;-66
2021/03/13 07:51:07;;;;;;;7.78;1.33;;;;;;;7.64;100.00;100123.78;5052543;28;20032;-68
2021/03/13 07:53:38;;;;;;;12.98;2.58;;;;;;;7.69;100.00;100129.31;5070919;28;20135;-67
2021/03/13 07:56:07;;;;;;;11.95;1.75;;;;;;;7.70;100.00;100133.69;5070543;28;20032;-68
2021/03/13 07:58:37;;;;;;;10.85;2.10;;;;;;;7.73;100.00;100133.19;5070529;28;20075;-68
2021/03/13 08:01:03;;;;;;;13.45;2.15;;;;;;;7.75;100.00;100134.59;5070422;28;20037;-70
2021/03/13 08:03:29;;;;;;;15.05;3.17;;;;;;;7.75;100.00;100133.78;5070429;28;20047;-65
2021/03/13 08:05:56;;;;;;;16.60;2.63;;;;;;;7.79;100.00;100140.38;5070385;28;20554;-65
2021/03/13 08:08:43;;;;;;;17.60;2.58;;;;;;;7.80;100.00;100126.53;5070376;28;20045;-67
2021/03/13 08:11:11;;;;;;;8.45;2.17;;;;;;;7.88;100.00;100140.84;5069808;28;20040;-66
2021/03/13 08:13:39;;;;;;;18.90;3.20;;;;;;;7.94;100.00;100132.53;5070154;28;20063;-68
2021/03/13 08:16:10;;;;;;;13.60;2.75;;;;;;;8.03;100.00;100146.59;5070326;28;20489;-68
2021/03/13 08:18:57;;;;;;;10.55;1.73;;;;;;;8.13;100.00;100142.16;5070413;28;20060;-65
2021/03/13 08:21:22;;;;;;;18.85;2.58;;;;;;;8.29;100.00;100139.72;5070175;28;20044;-67
2021/03/13 08:23:50;;;;;;;17.90;2.80;;;;;;;8.40;100.00;100141.59;5069977;28;20036;-65
2021/03/13 08:26:17;;;;;;;13.90;2.33;;;;;;;8.45;100.00;100144.38;5052187;28;20395;-65
2021/03/13 08:28:49;;;;;;;20.35;3.53;;;;;;;8.42;100.00;100161.22;5051900;28;20380;-69
2021/03/13 08:31:31;;;;;;;27.40;4.03;;;;;;;8.34;100.00;100164.34;5069993;28;20097;-66
2021/03/13 08:34:07;;;;;;;15.00;2.28;;;;;;;8.30;100.00;100188.44;5073655;28;20540;-66
2021/03/13 08:36:46;;;;;;;14.18;3.03;;;;;;;8.24;100.00;100185.88;5073809;28;20039;-67
2021/03/13 08:39:17;;;;;;;18.05;2.60;;;;;;;8.19;100.00;100188.50;5073778;28;20109;-64
2021/03/13 08:41:43;;;;;;;16.92;2.08;;;;;;;8.19;100.00;100193.94;5073740;28;20040;-65
2021/03/13 08:44:31;;;;;;;9.23;1.30;;;;;;;8.15;100.00;100205.28;5073964;28;20033;-66
2021/03/13 08:47:05;;;;;;;15.23;2.45;;;;;;;8.22;100.00;100198.91;5073615;28;20489;-67
2021/03/13 08:49:31;;;;;;;11.63;2.10;;;;;;;8.12;100.00;100208.50;5073641;28;20425;-67
2021/03/13 08:52:09;;;;;;;5.75;2.00;;;;;;;8.15;100.00;100205.28;5073608;28;20034;-66
2021/03/13 08:54:41;;;;;;;12.38;1.50;;;;;;;8.18;100.00;100220.31;5073527;28;20449;-65
2021/03/13 08:57:09;;;;;;;14.52;2.40;;;;;;;8.19;100.00;100237.47;5073361;28;20376;-65
2021/03/13 08:59:35;;;;;;;12.68;1.80;;;;;;;8.25;100.00;100241.94;5073410;28;20043;-66
2021/03/13 09:02:03;;;;;;;14.55;2.35;;;;;;;8.26;100.00;100238.13;5073062;28;20114;-65
2021/03/13 09:04:30;;;;;;;10.15;1.20;;;;;;;8.31;100.00;100213.75;5073319;28;20037;-68
2021/03/13 09:07:00;;;;;;;5.43;1.20;;;;;;;8.30;100.00;100222.97;5073044;28;20515;-66
2021/03/13 09:09:27;;;;;;;15.38;2.70;;;;;;;8.39;100.00;100237.91;5073342;28;20032;-67
2021/03/13 09:12:06;;;;;;;12.07;1.33;;;;;;;8.49;100.00;100232.63;5073201;28;20032;-64
2021/03/13 09:14:33;;;;;;;13.57;1.73;;;;;;;8.55;100.00;100226.22;5073235;28;20035;-66
2021/03/13 09:17:14;;;;;;;14.82;2.10;;;;;;;8.62;100.00;100237.78;5073118;28;20036;-65
2021/03/13 09:19:42;;;;;;;13.95;2.30;;;;;;;8.72;100.00;100243.44;5073005;28;20554;-65
2021/03/13 09:22:10;;;;;;;11.55;1.90;;;;;;;8.85;100.00;100245.03;5054841;28;20410;-65
2021/03/13 09:24:36;;;;;;;9.25;2.03;;;;;;;8.97;100.00;100247.66;5073018;28;20032;-65
2021/03/13 09:27:04;;;;;;;16.30;1.50;;;;;;;8.96;100.00;100248.72;5072820;28;20422;-67
2021/03/13 09:29:32;;;;;;;13.00;1.55;;;;;;;8.96;100.00;100254.19;5072986;28;20064;-66
2021/03/13 09:32:03;;;;;;;11.70;2.05;;;;;;;9.02;100.00;100242.28;5072849;28;20028;-65
2021/03/13 09:34:32;;;;;;;10.95;1.90;;;;;;;9.17;100.00;100261.63;5073179;28;20474;-67
2021/03/13 09:36:58;;;;;;;11.98;1.73;;;;;;;9.19;100.00;100239.56;5072774;28;20121;-66
2021/03/13 09:39:28;;;;;;;17.92;2.55;;;;;;;9.31;100.00;100256.66;5072687;28;20042;-71
2021/03/13 09:42:24;;;;;;;9.57;1.80;;;;;;;9.18;100.00;100260.53;5072528;28;20039;-65
2021/03/13 09:44:55;;;;;;;10.13;1.20;;;;;;;8.79;100.00;100286.00;4970418;28;20425;-65
2021/03/13 09:47:41;;;;;;;10.63;1.00;;;;;;;8.14;100.00;100287.94;4971342;28;20131;-69
2021/03/13 09:50:18;;;;;;;5.65;0.88;;;;;;;7.76;100.00;100293.91;5070154;28;20084;-65
2021/03/13 09:52:49;;;;;;;6.97;0.88;;;;;;;7.45;100.00;100292.38;5072511;28;20336;-69
2021/03/13 09:55:24;;;;;;;4.00;0.63;;;;;;;7.23;100.00;100296.72;5072453;28;20114;-66
2021/03/13 09:57:52;;;;;;;4.18;0.60;;;;;;;7.18;100.00;100297.44;5072427;28;20040;-67
2021/03/13 10:00:26;;;;;;;5.13;1.05;;;;;;;7.34;100.00;100309.50;5072093;28;20433;-68
2021/03/13 10:02:53;;;;;;;7.03;1.60;;;;;;;7.51;100.00;100313.19;5072354;28;20524;-66
2021/03/13 10:05:22;;;;;;;9.43;2.28;;;;;;;7.66;100.00;100315.44;5054266;28;20032;-65
2021/03/13 10:07:50;;;;;;;6.55;2.85;;;;;;;7.75;100.00;100313.19;5071999;28;20041;-66
2021/03/13 10:10:23;;;;;;;7.97;0.90;;;;;;;7.82;100.00;100319.34;5071942;28;20042;-67
2021/03/13 10:12:55;;;;;;;9.98;2.22;;;;;;;8.05;100.00;100319.31;5072019;28;20078;-68
2021/03/13 10:15:31;;;;;;;12.43;1.90;;;;;;;8.24;100.00;100311.00;5072031;28;20040;-67
2021/03/13 10:18:05;;;;;;;12.85;2.38;;;;;;;8.32;100.00;100307.91;5072089;28;20040;-67
2021/03/13 10:20:35;;;;;;;12.65;2.03;;;;;;;8.45;100.00;100310.38;5071887;28;20399;-64
2021/03/13 10:23:11;;;;;;;11.25;1.83;;;;;;;8.45;100.00;100302.22;5071778;28;20051;-67
2021/03/13 10:25:39;;;;;;;11.85;1.63;;;;;;;8.66;100.00;100312.44;5071817;28;20036;-65
2021/03/13 10:28:10;;;;;;;9.27;1.17;;;;;;;8.76;100.00;100318.09;5071646;28;20064;-66
2021/03/13 10:30:37;;;;;;;6.88;1.08;;;;;;;8.70;100.00;100294.56;5071707;28;20382;-65
2021/03/13 10:33:04;;;;;;;9.20;1.30;;;;;;;8.64;100.00;100314.59;5071490;28;20066;-64
2021/03/13 10:35:31;;;;;;;6.70;1.10;;;;;;;8.52;100.00;100313.81;5071537;28;20040;-69
2021/03/13 10:38:02;;;;;;;7.88;1.52;;;;;;;8.50;100.00;100320.53;5071590;28;20128;-66
2021/03/13 10:40:30;;;;;;;6.80;1.17;;;;;;;8.44;100.00;100330.50;5071467;28;20040;-66
2021/03/13 10:43:14;;;;;;;7.82;1.00;;;;;;;8.40;100.00;100326.63;5071343;28;20042;-67
2021/03/13 10:45:41;;;;;;;7.50;0.95;;;;;;;8.39;100.00;100335.84;5071242;28;20021;-64
2021/03/13 10:48:09;;;;;;;7.10;1.00;;;;;;;8.38;100.00;100339.66;5071543;28;20124;-69
2021/03/13 10:50:38;;;;;;;9.80;1.83;;;;;;;8.49;100.00;100336.03;5071455;28;20024;-65
2021/03/13 10:53:26;;;;;;;5.95;1.95;;;;;;;8.59;100.00;100347.16;5071239;28;20039;-68
2021/03/13 10:55:55;;;;;;;9.82;1.45;;;;;;;8.88;100.00;100333.56;5070778;28;20426;-66
2021/03/13 10:58:24;;;;;;;10.63;1.15;;;;;;;8.97;100.00;100323.91;5071368;28;20043;-65
2021/03/13 11:00:50;;;;;;;11.25;2.33;;;;;;;9.20;100.00;100326.53;5071098;28;20491;-67
2021/03/13 11:03:16;;;;;;;7.50;1.48;;;;;;;9.40;100.00;100330.69;5071194;28;20605;-63
2021/03/13 11:05:42;;;;;;;8.48;1.00;;;;;;;9.55;100.00;100328.22;5071154;28;20131;-65
2021/03/13 11:08:15;;;;;;;6.60;1.52;;;;;;;9.51;100.00;100337.94;5071038;28;20056;-66
2021/03/13 11:10:41;;;;;;;7.07;1.10;;;;;;;9.33;100.00;100326.19;5071098;28;20037;-65
2021/03/13 11:13:07;;;;;;;8.00;1.40;;;;;;;9.32;100.00;100334.63;5070957;28;20048;-65
2021/03/13 11:15:33;;;;;;;7.22;1.00;;;;;;;9.26;100.00;100325.53;5052961;28;20041;-67
2021/03/13 11:17:59;;;;;;;7.10;0.90;;;;;;;9.28;100.00;100339.75;5071047;28;20109;-64
2021/03/13 11:20:25;;;;;;;4.88;0.77;;;;;;;9.26;100.00;100347.34;5070871;28;20071;-67
2021/03/13 11:22:51;;;;;;;4.45;0.95;;;;;;;9.31;100.00;100352.06;5070853;28;20116;-66
2021/03/13 11:25:18;;;;;;;4.93;1.23;;;;;;;9.33;100.00;100349.91;5070828;28;20202;-65
2021/03/13 11:27:44;;;;;;;6.00;1.23;;;;;;;9.30;100.00;100369.47;5070975;28;20130;-70
2021/03/13 11:30:10;;;;;;;6.13;1.02;;;;;;;9.28;100.00;100371.63;5070972;28;20110;-66
2021/03/13 11:32:37;;;;;;;7.05;0.93;;;;;;;9.23;100.00;100372.38;5070554;28;20410;-66
2021/03/13 11:35:08;;;;;;;4.05;0.95;;;;;;;9.30;100.00;100377.66;5070740;28;20036;-68